Terminal Aerodrome Forecast
Issued by NWS Jackson, MS

Current Version | Previous Version | Text Only | Print | Product List | Glossary On
Versions: 1 2 3 4 5 6 7 8 9 10 11 12 13
683
FTUS44 KJAN 270527
TAFGLH
TAF
KGLH 270527Z 2706/2806 16008KT 6SM SHRA VCTS OVC050CB
     FM270800 VRB05G15KT 3SM SHRA BR VCTS BKN012CB OVC020
     FM271200 10008KT 5SM -SHRA BR BKN008 BKN030
     FM271800 13010KT P6SM SCT008 BKN015
     FM280000 14008KT 4SM BR BKN010=

USA.gov is the U.S. government's official web portal to all federal, state and local government web resources and services.